sensor_id;sensor_type;location;lat;lon;timestamp;pressure;altitude;pressure_sealevel;temperature;humidity
10202;BME280;5143;42.584;23.164;2023-03-18T00:01:38;92844.78;;;-2.59;100.00
10202;BME280;5143;42.584;23.164;2023-03-18T00:04:04;92842.91;;;-2.62;100.00
10202;BME280;5143;42.584;23.164;2023-03-18T00:06:31;92837.56;;;-2.65;100.00
10202;BME280;5143;42.584;23.164;2023-03-18T00:08:58;92835.31;;;-2.67;100.00
10202;BME280;5143;42.584;23.164;2023-03-18T00:11:25;92831.88;;;-2.71;100.00
10202;BME280;5143;42.584;23.164;2023-03-18T00:13:51;92828.44;;;-2.68;100.00
10202;BME280;5143;42.584;23.164;2023-03-18T00:16:20;92841.78;;;-2.68;100.00
10202;BME280;5143;42.584;23.164;2023-03-18T00:18:46;92833.78;;;-2.68;100.00
10202;BME280;5143;42.584;23.164;2023-03-18T00:21:14;92829.97;;;-2.70;100.00
10202;BME280;5143;42.584;23.164;2023-03-18T00:23:41;92820.84;;;-2.76;100.00
10202;BME280;5143;42.584;23.164;2023-03-18T00:26:08;92810.59;;;-2.81;100.00
10202;BME280;5143;42.584;23.164;2023-03-18T00:28:36;92818.19;;;-2.80;100.00
10202;BME280;5143;42.584;23.164;2023-03-18T00:31:04;92821.63;;;-2.79;100.00
10202;BME280;5143;42.584;23.164;2023-03-18T00:33:35;92811.31;;;-2.77;100.00
10202;BME280;5143;42.584;23.164;2023-03-18T00:36:02;92801.47;;;-2.84;100.00
10202;BME280;5143;42.584;23.164;2023-03-18T00:38:31;92813.25;;;-2.81;100.00
10202;BME280;5143;42.584;23.164;2023-03-18T00:41:00;92804.47;;;-2.78;100.00
10202;BME280;5143;42.584;23.164;2023-03-18T00:43:35;92809.06;;;-2.82;100.00
10202;BME280;5143;42.584;23.164;2023-03-18T00:46:11;92795.41;;;-2.91;100.00
10202;BME280;5143;42.584;23.164;2023-03-18T00:48:39;92791.22;;;-2.96;100.00
10202;BME280;5143;42.584;23.164;2023-03-18T00:51:06;92791.22;;;-2.96;100.00
10202;BME280;5143;42.584;23.164;2023-03-18T00:53:32;92796.63;;;-3.00;100.00
10202;BME280;5143;42.584;23.164;2023-03-18T00:55:59;92784.38;;;-2.97;100.00
10202;BME280;5143;42.584;23.164;2023-03-18T00:58:26;92789.69;;;-2.93;100.00
10202;BME280;5143;42.584;23.164;2023-03-18T01:00:53;92785.13;;;-2.97;100.00
10202;BME280;5143;42.584;23.164;2023-03-18T01:03:19;92783.22;;;-2.96;100.00
10202;BME280;5143;42.584;23.164;2023-03-18T01:05:51;92776.31;;;-2.93;100.00
10202;BME280;5143;42.584;23.164;2023-03-18T01:08:19;92779.41;;;-2.95;100.00
10202;BME280;5143;42.584;23.164;2023-03-18T01:10:46;92775.25;;;-3.00;100.00
10202;BME280;5143;42.584;23.164;2023-03-18T01:13:12;92762.28;;;-3.01;100.00
10202;BME280;5143;42.584;23.164;2023-03-18T01:15:39;92766.50;;;-3.07;100.00
10202;BME280;5143;42.584;23.164;2023-03-18T01:18:07;92772.25;;;-3.09;100.00
10202;BME280;5143;42.584;23.164;2023-03-18T01:20:35;92768.41;;;-3.04;100.00
10202;BME280;5143;42.584;23.164;2023-03-18T01:23:04;92772.19;;;-3.02;100.00
10202;BME280;5143;42.584;23.164;2023-03-18T01:25:33;92767.69;;;-3.08;100.00
10202;BME280;5143;42.584;23.164;2023-03-18T01:28:00;92771.09;;;-3.08;100.00
10202;BME280;5143;42.584;23.164;2023-03-18T01:30:27;92766.16;;;-3.09;100.00
10202;BME280;5143;42.584;23.164;2023-03-18T01:32:54;92767.69;;;-3.08;100.00
10202;BME280;5143;42.584;23.164;2023-03-18T01:35:21;92769.22;;;-3.11;100.00
10202;BME280;5143;42.584;23.164;2023-03-18T01:37:47;92762.34;;;-3.08;100.00
10202;BME280;5143;42.584;23.164;2023-03-18T01:40:16;92755.03;;;-3.04;100.00
10202;BME280;5143;42.584;23.164;2023-03-18T01:42:47;92743.66;;;-3.12;100.00
10202;BME280;5143;42.584;23.164;2023-03-18T01:45:19;92753.50;;;-3.02;100.00
10202;BME280;5143;42.584;23.164;2023-03-18T01:47:46;92752.00;;;-3.03;100.00
10202;BME280;5143;42.584;23.164;2023-03-18T01:50:16;92760.44;;;-3.11;100.00
10202;BME280;5143;42.584;23.164;2023-03-18T01:52:45;92750.94;;;-3.16;100.00
10202;BME280;5143;42.584;23.164;2023-03-18T01:55:16;92756.25;;;-3.16;100.00
10202;BME280;5143;42.584;23.164;2023-03-18T01:57:45;92752.50;;;-3.22;100.00
10202;BME280;5143;42.584;23.164;2023-03-18T02:00:14;92760.13;;;-3.24;100.00
10202;BME280;5143;42.584;23.164;2023-03-18T02:02:43;92754.84;;;-3.31;100.00
10202;BME280;5143;42.584;23.164;2023-03-18T02:05:14;92742.69;;;-3.39;100.00
10202;BME280;5143;42.584;23.164;2023-03-18T02:07:43;92752.19;;;-3.31;100.00
10202;BME280;5143;42.584;23.164;2023-03-18T02:10:13;92731.28;;;-3.43;100.00
10202;BME280;5143;42.584;23.164;2023-03-18T02:12:43;92747.97;;;-3.32;100.00
10202;BME280;5143;42.584;23.164;2023-03-18T02:15:13;92744.19;;;-3.34;100.00
10202;BME280;5143;42.584;23.164;2023-03-18T02:17:44;92744.59;;;-3.36;100.00
10202;BME280;5143;42.584;23.164;2023-03-18T02:20:18;92741.56;;;-3.38;100.00
10202;BME280;5143;42.584;23.164;2023-03-18T02:22:53;92734.28;;;-3.37;100.00
10202;BME280;5143;42.584;23.164;2023-03-18T02:25:30;92743.06;;;-3.37;100.00
10202;BME280;5143;42.584;23.164;2023-03-18T02:28:02;92736.63;;;-3.43;100.00
10202;BME280;5143;42.584;23.164;2023-03-18T02:30:32;92731.69;;;-3.48;100.00
10202;BME280;5143;42.584;23.164;2023-03-18T02:33:00;92729.81;;;-3.51;100.00
10202;BME280;5143;42.584;23.164;2023-03-18T02:35:28;92727.53;;;-3.52;100.00
10202;BME280;5143;42.584;23.164;2023-03-18T02:37:56;92728.31;;;-3.59;100.00
10202;BME280;5143;42.584;23.164;2023-03-18T02:40:26;92723.78;;;-3.62;100.00
10202;BME280;5143;42.584;23.164;2023-03-18T02:42:54;92724.53;;;-3.58;100.00
10202;BME280;5143;42.584;23.164;2023-03-18T02:45:32;92722.22;;;-3.60;100.00
10202;BME280;5143;42.584;23.164;2023-03-18T02:48:05;92732.09;;;-3.53;100.00
10202;BME280;5143;42.584;23.164;2023-03-18T02:50:33;92730.63;;;-3.61;100.00
10202;BME280;5143;42.584;23.164;2023-03-18T02:53:00;92728.38;;;-3.63;100.00
10202;BME280;5143;42.584;23.164;2023-03-18T02:55:28;92730.63;;;-3.65;100.00
10202;BME280;5143;42.584;23.164;2023-03-18T02:57:54;92725.34;;;-3.72;100.00
10202;BME280;5143;42.584;23.164;2023-03-18T03:00:22;92731.47;;;-3.78;100.00
10202;BME280;5143;42.584;23.164;2023-03-18T03:02:50;92726.16;;;-3.82;100.00
10202;BME280;5143;42.584;23.164;2023-03-18T03:05:16;92727.31;;;-3.79;100.00
10202;BME280;5143;42.584;23.164;2023-03-18T03:07:43;92719.31;;;-3.79;100.00
10202;BME280;5143;42.584;23.164;2023-03-18T03:10:11;92727.66;;;-3.77;100.00
10202;BME280;5143;42.584;23.164;2023-03-18T03:12:37;92726.56;;;-3.83;100.00
10202;BME280;5143;42.584;23.164;2023-03-18T03:15:07;92726.91;;;-3.81;100.00
10202;BME280;5143;42.584;23.164;2023-03-18T03:17:34;92729.22;;;-3.80;100.00
10202;BME280;5143;42.584;23.164;2023-03-18T03:20:03;92722.34;;;-3.84;100.00
10202;BME280;5143;42.584;23.164;2023-03-18T03:22:30;92717.84;;;-3.94;100.00
10202;BME280;5143;42.584;23.164;2023-03-18T03:24:57;92731.16;;;-3.87;100.00
10202;BME280;5143;42.584;23.164;2023-03-18T03:27:25;92728.84;;;-3.85;100.00
10202;BME280;5143;42.584;23.164;2023-03-18T03:29:52;92734.19;;;-3.85;100.00
10202;BME280;5143;42.584;23.164;2023-03-18T03:32:19;92738.00;;;-3.86;100.00
10202;BME280;5143;42.584;23.164;2023-03-18T03:34:46;92728.91;;;-3.96;100.00
10202;BME280;5143;42.584;23.164;2023-03-18T03:37:15;92730.81;;;-3.93;100.00
10202;BME280;5143;42.584;23.164;2023-03-18T03:39:41;92731.94;;;-3.94;100.00
10202;BME280;5143;42.584;23.164;2023-03-18T03:42:09;92727.75;;;-3.95;100.00
10202;BME280;5143;42.584;23.164;2023-03-18T03:44:36;92720.56;;;-4.08;100.00
10202;BME280;5143;42.584;23.164;2023-03-18T03:47:03;92734.59;;;-3.97;100.00
10202;BME280;5143;42.584;23.164;2023-03-18T03:49:31;92743.78;;;-3.98;100.00
10202;BME280;5143;42.584;23.164;2023-03-18T03:51:57;92741.50;;;-4.10;100.00
10202;BME280;5143;42.584;23.164;2023-03-18T03:54:26;92742.66;;;-4.08;100.00
10202;BME280;5143;42.584;23.164;2023-03-18T03:56:52;92733.19;;;-4.23;100.00
10202;BME280;5143;42.584;23.164;2023-03-18T03:59:19;92739.25;;;-4.23;100.00
10202;BME280;5143;42.584;23.164;2023-03-18T04:01:46;92741.91;;;-4.19;100.00
10202;BME280;5143;42.584;23.164;2023-03-18T04:04:12;92736.19;;;-4.14;100.00
10202;BME280;5143;42.584;23.164;2023-03-18T04:06:39;92737.31;;;-4.11;100.00
10202;BME280;5143;42.584;23.164;2023-03-18T04:09:06;92735.47;;;-4.18;100.00
10202;BME280;5143;42.584;23.164;2023-03-18T04:11:35;92732.78;;;-4.22;100.00
10202;BME280;5143;42.584;23.164;2023-03-18T04:14:02;92737.75;;;-4.24;100.00
10202;BME280;5143;42.584;23.164;2023-03-18T04:16:28;92738.88;;;-4.18;100.00
10202;BME280;5143;42.584;23.164;2023-03-18T04:18:55;92744.94;;;-4.17;100.00
10202;BME280;5143;42.584;23.164;2023-03-18T04:21:22;92732.84;;;-4.36;100.00
10202;BME280;5143;42.584;23.164;2023-03-18T04:23:48;92745.72;;;-4.17;100.00
10202;BME280;5143;42.584;23.164;2023-03-18T04:26:16;92746.09;;;-4.14;100.00
10202;BME280;5143;42.584;23.164;2023-03-18T04:28:44;92724.44;;;-4.24;100.00
10202;BME280;5143;42.584;23.164;2023-03-18T04:31:11;92743.06;;;-4.20;100.00
10202;BME280;5143;42.584;23.164;2023-03-18T04:33:37;92749.91;;;-4.19;100.00
10202;BME280;5143;42.584;23.164;2023-03-18T04:36:06;92745.75;;;-4.24;100.00
10202;BME280;5143;42.584;23.164;2023-03-18T04:38:32;92749.56;;;-4.25;100.00
10202;BME280;5143;42.584;23.164;2023-03-18T04:40:59;92741.56;;;-4.25;100.00
10202;BME280;5143;42.584;23.164;2023-03-18T04:43:26;92748.41;;;-4.24;100.00
10202;BME280;5143;42.584;23.164;2023-03-18T04:45:54;92758.28;;;-4.10;100.00
10202;BME280;5143;42.584;23.164;2023-03-18T04:48:22;92749.50;;;-4.10;100.00
10202;BME280;5143;42.584;23.164;2023-03-18T04:50:49;92746.09;;;-4.14;100.00
10202;BME280;5143;42.584;23.164;2023-03-18T04:53:15;92757.09;;;-4.02;100.00
10202;BME280;5143;42.584;23.164;2023-03-18T04:55:42;92754.44;;;-4.05;100.00
10202;BME280;5143;42.584;23.164;2023-03-18T04:58:09;92755.22;;;-4.08;100.00
10202;BME280;5143;42.584;23.164;2023-03-18T05:00:36;92759.78;;;-4.02;100.00
10202;BME280;5143;42.584;23.164;2023-03-18T05:03:04;92758.97;;;-3.88;100.00
10202;BME280;5143;42.584;23.164;2023-03-18T05:05:31;92756.69;;;-3.97;100.00
10202;BME280;5143;42.584;23.164;2023-03-18T05:07:58;92761.25;;;-3.94;100.00
10202;BME280;5143;42.584;23.164;2023-03-18T05:10:25;92749.84;;;-3.98;100.00
10202;BME280;5143;42.584;23.164;2023-03-18T05:12:51;92768.09;;;-3.82;100.00
10202;BME280;5143;42.584;23.164;2023-03-18T05:15:18;92769.59;;;-3.81;100.00
10202;BME280;5143;42.584;23.164;2023-03-18T05:17:45;92768.03;;;-3.75;100.00
10202;BME280;5143;42.584;23.164;2023-03-18T05:20:13;92765.72;;;-3.63;100.00
10202;BME280;5143;42.584;23.164;2023-03-18T05:22:40;92771.78;;;-3.62;100.00
10202;BME280;5143;42.584;23.164;2023-03-18T05:25:08;92772.91;;;-3.56;100.00
10202;BME280;5143;42.584;23.164;2023-03-18T05:27:36;92760.34;;;-3.59;100.00
10202;BME280;5143;42.584;23.164;2023-03-18T05:30:03;92777.81;;;-3.47;100.00
10202;BME280;5143;42.584;23.164;2023-03-18T05:32:30;92783.88;;;-3.40;100.00
10202;BME280;5143;42.584;23.164;2023-03-18T05:34:58;92773.53;;;-3.31;100.00
10202;BME280;5143;42.584;23.164;2023-03-18T05:37:26;92779.56;;;-3.20;100.00
10202;BME280;5143;42.584;23.164;2023-03-18T05:39:53;92787.56;;;-3.16;100.00
10202;BME280;5143;42.584;23.164;2023-03-18T05:42:20;92779.84;;;-3.04;100.00
10202;BME280;5143;42.584;23.164;2023-03-18T05:44:47;92772.38;;;-2.30;100.00
10202;BME280;5143;42.584;23.164;2023-03-18T05:47:14;92771.16;;;-0.71;100.00
10202;BME280;5143;42.584;23.164;2023-03-18T05:49:40;92780.41;;;0.56;100.00
10202;BME280;5143;42.584;23.164;2023-03-18T05:52:07;92814.22;;;1.45;100.00
10202;BME280;5143;42.584;23.164;2023-03-18T05:54:35;92817.69;;;2.96;100.00
10202;BME280;5143;42.584;23.164;2023-03-18T05:57:02;92827.34;;;3.98;100.00
10202;BME280;5143;42.584;23.164;2023-03-18T05:59:29;92839.56;;;3.40;100.00
10202;BME280;5143;42.584;23.164;2023-03-18T06:01:56;92841.66;;;4.21;100.00
10202;BME280;5143;42.584;23.164;2023-03-18T06:04:23;92846.22;;;5.35;100.00
10202;BME280;5143;42.584;23.164;2023-03-18T06:06:51;92853.63;;;5.75;89.07
10202;BME280;5143;42.584;23.164;2023-03-18T06:09:18;92855.16;;;7.01;74.39
10202;BME280;5143;42.584;23.164;2023-03-18T06:11:46;92861.50;;;8.60;72.25
10202;BME280;5143;42.584;23.164;2023-03-18T06:14:13;92864.25;;;10.19;55.57
10202;BME280;5143;42.584;23.164;2023-03-18T06:16:40;92841.59;;;10.82;49.39
10202;BME280;5143;42.584;23.164;2023-03-18T06:19:08;92850.03;;;10.84;48.03
10202;BME280;5143;42.584;23.164;2023-03-18T06:21:36;92846.94;;;11.37;47.06
10202;BME280;5143;42.584;23.164;2023-03-18T06:24:03;92845.63;;;11.78;46.20
10202;BME280;5143;42.584;23.164;2023-03-18T06:26:30;92854.69;;;12.16;44.80
10202;BME280;5143;42.584;23.164;2023-03-18T06:28:58;92848.22;;;12.92;41.64
10202;BME280;5143;42.584;23.164;2023-03-18T06:31:24;92849.25;;;13.48;41.03
10202;BME280;5143;42.584;23.164;2023-03-18T06:33:51;92854.63;;;14.35;39.79
10202;BME280;5143;42.584;23.164;2023-03-18T06:36:19;92859.09;;;14.16;40.35
10202;BME280;5143;42.584;23.164;2023-03-18T06:38:46;92855.06;;;13.84;40.79
10202;BME280;5143;42.584;23.164;2023-03-18T06:41:13;92854.50;;;13.04;41.21
10202;BME280;5143;42.584;23.164;2023-03-18T06:43:40;92848.66;;;12.12;43.54
10202;BME280;5143;42.584;23.164;2023-03-18T06:46:09;92829.75;;;11.31;44.86
10202;BME280;5143;42.584;23.164;2023-03-18T06:48:35;92839.38;;;11.26;45.59
10202;BME280;5143;42.584;23.164;2023-03-18T06:51:05;92841.06;;;11.44;44.99
10202;BME280;5143;42.584;23.164;2023-03-18T06:53:32;92840.78;;;11.68;44.13
10202;BME280;5143;42.584;23.164;2023-03-18T06:56:00;92841.94;;;11.81;44.24
10202;BME280;5143;42.584;23.164;2023-03-18T06:58:27;92843.19;;;12.12;42.80
10202;BME280;5143;42.584;23.164;2023-03-18T07:00:54;92845.72;;;12.94;42.13
10202;BME280;5143;42.584;23.164;2023-03-18T07:03:23;92843.22;;;12.49;42.08
10202;BME280;5143;42.584;23.164;2023-03-18T07:05:50;92849.22;;;13.37;40.66
10202;BME280;5143;42.584;23.164;2023-03-18T07:08:17;92848.34;;;14.07;39.47
10202;BME280;5143;42.584;23.164;2023-03-18T07:10:44;92845.00;;;13.47;39.78
10202;BME280;5143;42.584;23.164;2023-03-18T07:13:11;92851.50;;;13.55;39.77
10202;BME280;5143;42.584;23.164;2023-03-18T07:15:39;92851.25;;;13.53;39.25
10202;BME280;5143;42.584;23.164;2023-03-18T07:18:07;92838.75;;;12.51;41.27
10202;BME280;5143;42.584;23.164;2023-03-18T07:20:36;92829.88;;;12.62;41.32
10202;BME280;5143;42.584;23.164;2023-03-18T07:23:03;92836.31;;;12.22;41.66
10202;BME280;5143;42.584;23.164;2023-03-18T07:25:29;92834.22;;;12.06;42.76
10202;BME280;5143;42.584;23.164;2023-03-18T07:27:56;92835.94;;;12.40;42.27
10202;BME280;5143;42.584;23.164;2023-03-18T07:30:24;92820.63;;;12.22;43.85
10202;BME280;5143;42.584;23.164;2023-03-18T07:32:51;92829.19;;;11.73;43.48
10202;BME280;5143;42.584;23.164;2023-03-18T07:35:18;92831.09;;;11.67;43.49
10202;BME280;5143;42.584;23.164;2023-03-18T07:37:46;92821.16;;;10.98;44.78
10202;BME280;5143;42.584;23.164;2023-03-18T07:40:13;92830.84;;;10.99;46.34
10202;BME280;5143;42.584;23.164;2023-03-18T07:42:41;92820.34;;;10.92;47.53
10202;BME280;5143;42.584;23.164;2023-03-18T07:45:09;92819.44;;;10.60;47.60
10202;BME280;5143;42.584;23.164;2023-03-18T07:47:36;92820.09;;;10.05;48.62
10202;BME280;5143;42.584;23.164;2023-03-18T07:50:03;92811.19;;;9.90;48.49
10202;BME280;5143;42.584;23.164;2023-03-18T07:52:30;92816.38;;;9.44;53.26
10202;BME280;5143;42.584;23.164;2023-03-18T07:54:58;92804.25;;;8.30;57.99
10202;BME280;5143;42.584;23.164;2023-03-18T07:57:25;92809.94;;;8.09;65.28
10202;BME280;5143;42.584;23.164;2023-03-18T07:59:51;92809.94;;;6.89;74.10
10202;BME280;5143;42.584;23.164;2023-03-18T08:02:18;92810.69;;;6.80;84.02
10202;BME280;5143;42.584;23.164;2023-03-18T08:04:46;92808.72;;;6.81;86.04
10202;BME280;5143;42.584;23.164;2023-03-18T08:07:13;92812.03;;;6.85;82.99
10202;BME280;5143;42.584;23.164;2023-03-18T08:09:39;92806.75;;;6.99;76.37
10202;BME280;5143;42.584;23.164;2023-03-18T08:12:08;92806.28;;;7.19;67.52
10202;BME280;5143;42.584;23.164;2023-03-18T08:14:35;92803.44;;;7.04;63.36
10202;BME280;5143;42.584;23.164;2023-03-18T08:17:02;92789.75;;;6.81;65.71
10202;BME280;5143;42.584;23.164;2023-03-18T08:19:29;92810.50;;;7.29;66.20
10202;BME280;5143;42.584;23.164;2023-03-18T08:21:56;92802.22;;;6.87;68.55
10202;BME280;5143;42.584;23.164;2023-03-18T08:24:23;92800.09;;;7.28;79.42
10202;BME280;5143;42.584;23.164;2023-03-18T08:26:49;92809.72;;;7.29;67.08
10202;BME280;5143;42.584;23.164;2023-03-18T08:29:18;92806.84;;;7.41;67.71
10202;BME280;5143;42.584;23.164;2023-03-18T08:31:44;92798.03;;;7.64;77.82
10202;BME280;5143;42.584;23.164;2023-03-18T08:34:11;92803.28;;;7.68;67.22
10202;BME280;5143;42.584;23.164;2023-03-18T08:36:39;92800.25;;;7.15;73.44
10202;BME280;5143;42.584;23.164;2023-03-18T08:39:06;92785.22;;;6.78;70.51
10202;BME280;5143;42.584;23.164;2023-03-18T08:41:34;92793.47;;;6.38;64.16
10202;BME280;5143;42.584;23.164;2023-03-18T08:44:01;92796.59;;;6.09;72.95
10202;BME280;5143;42.584;23.164;2023-03-18T08:46:29;92793.56;;;5.98;86.64
10202;BME280;5143;42.584;23.164;2023-03-18T08:48:55;92786.91;;;5.90;91.20
10202;BME280;5143;42.584;23.164;2023-03-18T08:51:22;92791.88;;;5.61;91.32
10202;BME280;5143;42.584;23.164;2023-03-18T08:53:50;92793.34;;;5.53;91.68
10202;BME280;5143;42.584;23.164;2023-03-18T08:56:16;92788.81;;;5.50;95.01
10202;BME280;5143;42.584;23.164;2023-03-18T08:58:43;92787.97;;;5.62;98.58
10202;BME280;5143;42.584;23.164;2023-03-18T09:01:11;92791.31;;;5.66;68.67
10202;BME280;5143;42.584;23.164;2023-03-18T09:03:39;92800.53;;;6.26;58.99
10202;BME280;5143;42.584;23.164;2023-03-18T09:06:06;92800.53;;;6.26;57.51
10202;BME280;5143;42.584;23.164;2023-03-18T09:08:34;92803.25;;;6.17;58.43
10202;BME280;5143;42.584;23.164;2023-03-18T09:11:01;92798.69;;;6.05;60.36
10202;BME280;5143;42.584;23.164;2023-03-18T09:13:27;92802.13;;;5.97;58.86
10202;BME280;5143;42.584;23.164;2023-03-18T09:15:54;92800.13;;;5.88;61.50
10202;BME280;5143;42.584;23.164;2023-03-18T09:18:21;92804.28;;;5.80;58.13
10202;BME280;5143;42.584;23.164;2023-03-18T09:20:50;92810.66;;;5.86;58.48
10202;BME280;5143;42.584;23.164;2023-03-18T09:23:18;92808.94;;;6.10;56.51
10202;BME280;5143;42.584;23.164;2023-03-18T09:25:45;92812.09;;;6.09;55.36
10202;BME280;5143;42.584;23.164;2023-03-18T09:28:12;92814.91;;;5.87;54.65
10202;BME280;5143;42.584;23.164;2023-03-18T09:30:40;92815.00;;;6.23;55.53
10202;BME280;5143;42.584;23.164;2023-03-18T09:33:06;92812.44;;;6.29;53.73
10202;BME280;5143;42.584;23.164;2023-03-18T09:35:35;92814.31;;;6.77;52.37
10202;BME280;5143;42.584;23.164;2023-03-18T09:38:04;92820.16;;;6.76;51.72
10202;BME280;5143;42.584;23.164;2023-03-18T09:40:33;92812.44;;;6.29;52.39
10202;BME280;5143;42.584;23.164;2023-03-18T09:43:12;92812.72;;;6.22;53.69
10202;BME280;5143;42.584;23.164;2023-03-18T09:45:45;92816.50;;;6.15;52.76
10202;BME280;5143;42.584;23.164;2023-03-18T09:48:38;92801.09;;;5.72;54.65
10202;BME280;5143;42.584;23.164;2023-03-18T09:51:16;92806.16;;;5.30;57.00
10202;BME280;5143;42.584;23.164;2023-03-18T09:53:51;92814.47;;;5.36;58.30
10202;BME280;5143;42.584;23.164;2023-03-18T09:56:22;92814.81;;;5.78;58.88
10202;BME280;5143;42.584;23.164;2023-03-18T09:58:55;92787.56;;;6.12;57.96
10202;BME280;5143;42.584;23.164;2023-03-18T10:01:26;92820.44;;;6.23;56.49
10202;BME280;5143;42.584;23.164;2023-03-18T10:03:58;92831.91;;;6.54;56.00
10202;BME280;5143;42.584;23.164;2023-03-18T10:06:28;92817.91;;;6.47;52.15
10202;BME280;5143;42.584;23.164;2023-03-18T10:09:07;92815.97;;;6.75;51.35
10202;BME280;5143;42.584;23.164;2023-03-18T10:11:38;92820.00;;;7.06;54.03
10202;BME280;5143;42.584;23.164;2023-03-18T10:14:18;92823.19;;;7.05;50.68
10202;BME280;5143;42.584;23.164;2023-03-18T10:16:59;92824.41;;;6.95;51.19
10202;BME280;5143;42.584;23.164;2023-03-18T10:19:27;92824.09;;;7.11;52.79
10202;BME280;5143;42.584;23.164;2023-03-18T10:22:03;92830.41;;;7.17;52.24
10202;BME280;5143;42.584;23.164;2023-03-18T10:24:38;92838.41;;;6.84;51.09
10202;BME280;5143;42.584;23.164;2023-03-18T10:27:13;92831.47;;;7.10;51.94
10202;BME280;5143;42.584;23.164;2023-03-18T10:29:47;92834.88;;;7.47;53.56
10202;BME280;5143;42.584;23.164;2023-03-18T10:32:27;92830.59;;;7.73;51.63
10202;BME280;5143;42.584;23.164;2023-03-18T10:35:05;92825.41;;;7.94;49.15
10202;BME280;5143;42.584;23.164;2023-03-18T10:37:43;92835.13;;;8.18;49.57
10202;BME280;5143;42.584;23.164;2023-03-18T10:40:18;92830.59;;;8.15;48.54
10202;BME280;5143;42.584;23.164;2023-03-18T10:42:47;92826.44;;;7.96;46.96
10202;BME280;5143;42.584;23.164;2023-03-18T10:45:21;92833.09;;;7.95;46.38
10202;BME280;5143;42.584;23.164;2023-03-18T10:47:53;92826.72;;;7.65;48.02
10202;BME280;5143;42.584;23.164;2023-03-18T10:50:25;92826.19;;;7.85;47.66
10202;BME280;5143;42.584;23.164;2023-03-18T10:53:01;92820.28;;;7.87;48.12
10202;BME280;5143;42.584;23.164;2023-03-18T10:55:37;92826.25;;;8.09;48.74
10202;BME280;5143;42.584;23.164;2023-03-18T10:58:14;92821.34;;;7.80;48.41
10202;BME280;5143;42.584;23.164;2023-03-18T11:00:41;92816.59;;;7.66;48.38
10202;BME280;5143;42.584;23.164;2023-03-18T11:03:18;92828.25;;;7.99;47.84
10202;BME280;5143;42.584;23.164;2023-03-18T11:05:48;92821.19;;;7.84;47.72
10202;BME280;5143;42.584;23.164;2023-03-18T11:08:31;92825.06;;;8.01;48.13
10202;BME280;5143;42.584;23.164;2023-03-18T11:11:20;92828.31;;;8.14;46.32
10202;BME280;5143;42.584;23.164;2023-03-18T11:13:52;92811.34;;;7.95;45.88
10202;BME280;5143;42.584;23.164;2023-03-18T11:16:28;92803.97;;;7.87;44.95
10202;BME280;5143;42.584;23.164;2023-03-18T11:18:56;92815.78;;;8.16;46.49
10202;BME280;5143;42.584;23.164;2023-03-18T11:21:24;92822.88;;;8.14;45.14
10202;BME280;5143;42.584;23.164;2023-03-18T11:23:56;92828.53;;;8.43;42.94
10202;BME280;5143;42.584;23.164;2023-03-18T11:26:47;92813.06;;;8.73;44.45
10202;BME280;5143;42.584;23.164;2023-03-18T11:29:21;92819.84;;;9.45;43.54
10202;BME280;5143;42.584;23.164;2023-03-18T11:31:54;92829.78;;;9.19;42.37
10202;BME280;5143;42.584;23.164;2023-03-18T11:34:23;92822.94;;;9.67;43.45
10202;BME280;5143;42.584;23.164;2023-03-18T11:36:57;92831.00;;;10.05;41.27
10202;BME280;5143;42.584;23.164;2023-03-18T11:39:33;92828.59;;;10.07;41.38
10202;BME280;5143;42.584;23.164;2023-03-18T11:42:31;92825.94;;;9.40;45.37
10202;BME280;5143;42.584;23.164;2023-03-18T11:45:35;92827.34;;;8.82;47.81
10202;BME280;5143;42.584;23.164;2023-03-18T11:48:33;92842.38;;;8.12;49.60
10202;BME280;5143;42.584;23.164;2023-03-18T11:54:17;92833.97;;;8.01;49.07
10202;BME280;5143;42.584;23.164;2023-03-18T11:56:48;92828.41;;;7.96;50.75
10202;BME280;5143;42.584;23.164;2023-03-18T11:59:27;92831.56;;;7.52;49.73
10202;BME280;5143;42.584;23.164;2023-03-18T12:08:04;92823.84;;;7.60;50.71
10202;BME280;5143;42.584;23.164;2023-03-18T12:10:36;92813.72;;;8.02;49.76
10202;BME280;5143;42.584;23.164;2023-03-18T12:13:26;92812.19;;;8.43;47.50
10202;BME280;5143;42.584;23.164;2023-03-18T12:16:02;92823.81;;;8.44;45.55
10202;BME280;5143;42.584;23.164;2023-03-18T12:18:49;92842.06;;;8.52;43.67
10202;BME280;5143;42.584;23.164;2023-03-18T12:21:29;92833.44;;;8.54;42.50
10202;BME280;5143;42.584;23.164;2023-03-18T12:24:12;92829.44;;;8.40;43.65
10202;BME280;5143;42.584;23.164;2023-03-18T12:26:49;92825.91;;;8.49;42.68
10202;BME280;5143;42.584;23.164;2023-03-18T12:29:38;92839.19;;;8.14;43.86
10202;BME280;5143;42.584;23.164;2023-03-18T12:32:21;92827.72;;;7.77;44.48
10202;BME280;5143;42.584;23.164;2023-03-18T12:35:01;92822.94;;;7.63;44.93
10202;BME280;5143;42.584;23.164;2023-03-18T12:37:40;92837.78;;;7.86;43.67
10202;BME280;5143;42.584;23.164;2023-03-18T12:40:22;92820.03;;;7.66;46.10
10202;BME280;5143;42.584;23.164;2023-03-18T12:43:01;92825.72;;;8.19;45.46
10202;BME280;5143;42.584;23.164;2023-03-18T12:45:34;92830.97;;;8.65;43.95
10202;BME280;5143;42.584;23.164;2023-03-18T12:48:08;92809.81;;;8.83;43.90
10202;BME280;5143;42.584;23.164;2023-03-18T12:50:41;92816.16;;;9.19;44.14
10202;BME280;5143;42.584;23.164;2023-03-18T12:53:12;92809.31;;;8.85;43.08
10202;BME280;5143;42.584;23.164;2023-03-18T12:55:44;92800.72;;;8.39;45.21
10202;BME280;5143;42.584;23.164;2023-03-18T12:58:15;92805.91;;;8.52;45.40
10202;BME280;5143;42.584;23.164;2023-03-18T13:00:46;92820.81;;;8.42;44.75
10202;BME280;5143;42.584;23.164;2023-03-18T13:03:24;92830.75;;;8.45;44.20
10202;BME280;5143;42.584;23.164;2023-03-18T13:05:56;92807.69;;;8.40;44.41
10202;BME280;5143;42.584;23.164;2023-03-18T13:14:25;92811.19;;;8.32;44.40
10202;BME280;5143;42.584;23.164;2023-03-18T13:16:54;92815.25;;;8.60;44.73
10202;BME280;5143;42.584;23.164;2023-03-18T13:19:24;92820.28;;;8.19;43.88
10202;BME280;5143;42.584;23.164;2023-03-18T13:21:57;92814.53;;;8.26;44.29
10202;BME280;5143;42.584;23.164;2023-03-18T13:24:48;92818.81;;;8.51;43.13
10202;BME280;5143;42.584;23.164;2023-03-18T13:27:34;92821.31;;;8.31;44.13
10202;BME280;5143;42.584;23.164;2023-03-18T13:30:11;92825.09;;;8.34;44.03